Marina, Croatia
Current Conditions -  °F | °C
As of 12:00 AM on Wednesday 28 Jan 2015 (Local Time) from LDSP Reporting Station
Scattered Clouds Scattered Clouds  
Wind Chill:   Ceiling: Unl
Heat Index:   Visibility: 6mi
Dew Point: -3°   Wind: 16mph
Humidity: 53%   Direction: 40°NE
Pressure: 29.88"   Gusts: NA
Location:  43.51°N, 16.1°E
Report Text: LDSP 272300Z 04014KT 350V090 9999 SCT050 06/M03 Q1012
Loading
Personal Weather Stations






























Interactive Weather Map New forecast layout! Learn more

10-Day Weather Forecast

Advertisements
Track Severe Weather on mobile